sensor_id;sensor_type;location;lat;lon;timestamp;pressure;altitude;pressure_sealevel;temperature;humidity
5350;BME280;2697;42.144;24.794;2023-05-07T00:00:12;21628.97;;;13.95;100.00
5350;BME280;2697;42.144;24.794;2023-05-07T00:02:40;18575.41;;;13.89;100.00
5350;BME280;2697;42.144;24.794;2023-05-07T00:05:06;13153.66;;;13.78;100.00
5350;BME280;2697;42.144;24.794;2023-05-07T00:07:32;7403.19;;;13.62;100.00
5350;BME280;2697;42.144;24.794;2023-05-07T00:09:57;3688.88;;;13.59;100.00
5350;BME280;2697;42.144;24.794;2023-05-07T00:12:23;315.75;;;13.59;100.00
5350;BME280;2697;42.144;24.794;2023-05-07T00:14:48;-2380.63;;;13.60;100.00
5350;BME280;2697;42.144;24.794;2023-05-07T00:17:13;-1706.78;;;13.71;100.00
5350;BME280;2697;42.144;24.794;2023-05-07T00:19:39;-358.38;;;13.66;100.00
5350;BME280;2697;42.144;24.794;2023-05-07T00:22:04;315.91;;;13.64;100.00
5350;BME280;2697;42.144;24.794;2023-05-07T00:24:29;652.97;;;13.60;100.00
5350;BME280;2697;42.144;24.794;2023-05-07T00:26:55;2676.16;;;13.52;100.00
5350;BME280;2697;42.144;24.794;2023-05-07T00:29:20;2675.94;;;13.48;100.00
5350;BME280;2697;42.144;24.794;2023-05-07T00:31:46;3687.97;;;13.48;100.00
5350;BME280;2697;42.144;24.794;2023-05-07T00:34:11;3686.75;;;13.32;100.00
5350;BME280;2697;42.144;24.794;2023-05-07T00:36:36;2338.19;;;13.40;100.00
5350;BME280;2697;42.144;24.794;2023-05-07T00:39:02;3350.25;;;13.43;100.00
5350;BME280;2697;42.144;24.794;2023-05-07T00:41:29;4023.53;;;13.26;100.00
5350;BME280;2697;42.144;24.794;2023-05-07T00:43:55;3011.38;;;13.21;100.00
5350;BME280;2697;42.144;24.794;2023-05-07T00:46:22;-22.50;;;13.04;100.00
5350;BME280;2697;42.144;24.794;2023-05-07T00:48:48;-1706.25;;;12.96;100.00
5350;BME280;2697;42.144;24.794;2023-05-07T00:51:15;-3388.88;;;12.90;100.00
5350;BME280;2697;42.144;24.794;2023-05-07T00:53:40;-5406.50;;;12.80;100.00
5350;BME280;2697;42.144;24.794;2023-05-07T00:56:06;-5743.53;;;12.92;100.00
5350;BME280;2697;42.144;24.794;2023-05-07T00:58:33;-5743.91;;;12.97;100.00
5350;BME280;2697;42.144;24.794;2023-05-07T01:00:58;-5071.56;;;13.02;100.00
5350;BME280;2697;42.144;24.794;2023-05-07T01:03:24;-4735.06;;;13.00;100.00
5350;BME280;2697;42.144;24.794;2023-05-07T01:05:50;-5071.13;;;12.95;100.00
5350;BME280;2697;42.144;24.794;2023-05-07T01:08:16;-6415.81;;;12.89;100.00
5350;BME280;2697;42.144;24.794;2023-05-07T01:10:43;-7086.88;;;12.76;100.00
5350;BME280;2697;42.144;24.794;2023-05-07T01:13:09;-7759.88;;;12.84;100.00
5350;BME280;2697;42.144;24.794;2023-05-07T01:15:36;-8434.25;;;13.05;100.00
5350;BME280;2697;42.144;24.794;2023-05-07T01:18:02;-7090.66;;;13.16;100.00
5350;BME280;2697;42.144;24.794;2023-05-07T01:20:28;-5072.59;;;13.19;100.00
5350;BME280;2697;42.144;24.794;2023-05-07T01:22:54;-2716.81;;;13.28;100.00
5350;BME280;2697;42.144;24.794;2023-05-07T01:25:20;-1032.75;;;13.34;100.00
5350;BME280;2697;42.144;24.794;2023-05-07T01:27:46;1326.34;;;13.34;100.00
5350;BME280;2697;42.144;24.794;2023-05-07T01:30:11;1662.75;;;13.19;100.00
5350;BME280;2697;42.144;24.794;2023-05-07T01:32:43;-359.22;;;13.11;100.00
5350;BME280;2697;42.144;24.794;2023-05-07T01:35:24;-359.28;;;13.07;100.00
5350;BME280;2697;42.144;24.794;2023-05-07T01:37:52;-2716.78;;;13.28;100.00
5350;BME280;2697;42.144;24.794;2023-05-07T01:40:18;-1369.66;;;13.50;100.00
5350;BME280;2697;42.144;24.794;2023-05-07T01:42:44;3351.16;;;13.55;100.00
5350;BME280;2697;42.144;24.794;2023-05-07T01:45:11;5712.94;;;13.48;100.00
5350;BME280;2697;42.144;24.794;2023-05-07T01:47:37;6724.03;;;13.34;100.00
5350;BME280;2697;42.144;24.794;2023-05-07T01:50:05;7397.81;;;13.24;100.00
5350;BME280;2697;42.144;24.794;2023-05-07T01:52:31;8410.75;;;13.24;100.00
5350;BME280;2697;42.144;24.794;2023-05-07T01:54:56;10775.13;;;13.24;100.00
5350;BME280;2697;42.144;24.794;2023-05-07T01:57:22;11114.88;;;13.33;100.00
5350;BME280;2697;42.144;24.794;2023-05-07T01:59:47;11449.91;;;13.19;100.00
5350;BME280;2697;42.144;24.794;2023-05-07T02:02:12;8745.63;;;13.07;100.00
5350;BME280;2697;42.144;24.794;2023-05-07T02:04:38;6382.16;;;13.00;100.00
5350;BME280;2697;42.144;24.794;2023-05-07T02:07:03;5032.84;;;12.99;100.00
5350;BME280;2697;42.144;24.794;2023-05-07T02:09:30;5370.59;;;13.04;100.00
5350;BME280;2697;42.144;24.794;2023-05-07T02:11:55;7394.25;;;12.99;100.00
5350;BME280;2697;42.144;24.794;2023-05-07T02:14:20;7731.28;;;12.96;100.00
5350;BME280;2697;42.144;24.794;2023-05-07T02:16:46;9081.72;;;12.98;100.00
5350;BME280;2697;42.144;24.794;2023-05-07T02:19:11;9757.50;;;13.01;100.00
5350;BME280;2697;42.144;24.794;2023-05-07T02:21:36;9083.09;;;13.06;100.00
5350;BME280;2697;42.144;24.794;2023-05-07T02:24:02;9079.50;;;12.84;100.00
5350;BME280;2697;42.144;24.794;2023-05-07T02:26:27;4019.13;;;12.75;100.00
5350;BME280;2697;42.144;24.794;2023-05-07T02:28:53;313.91;;;12.87;100.00
5350;BME280;2697;42.144;24.794;2023-05-07T02:31:19;-1706.13;;;12.77;100.00
5350;BME280;2697;42.144;24.794;2023-05-07T02:33:44;-3724.53;;;12.70;100.00
5350;BME280;2697;42.144;24.794;2023-05-07T02:36:11;-7086.88;;;12.76;100.00
5350;BME280;2697;42.144;24.794;2023-05-07T02:38:37;-7758.91;;;12.75;100.00
5350;BME280;2697;42.144;24.794;2023-05-07T02:41:02;-7422.19;;;12.68;100.00
5350;BME280;2697;42.144;24.794;2023-05-07T02:43:28;-7085.22;;;12.58;100.00
5350;BME280;2697;42.144;24.794;2023-05-07T02:46:04;-7420.66;;;12.53;100.00
5350;BME280;2697;42.144;24.794;2023-05-07T02:48:30;-7419.03;;;12.37;100.00
5350;BME280;2697;42.144;24.794;2023-05-07T02:50:55;-8093.03;;;12.59;100.00
5350;BME280;2697;42.144;24.794;2023-05-07T02:53:21;-8429.50;;;12.64;100.00
5350;BME280;2697;42.144;24.794;2023-05-07T02:55:46;-8093.88;;;12.66;100.00
5350;BME280;2697;42.144;24.794;2023-05-07T02:58:11;-6749.41;;;12.60;100.00
5350;BME280;2697;42.144;24.794;2023-05-07T03:00:37;-6076.47;;;12.49;100.00
5350;BME280;2697;42.144;24.794;2023-05-07T03:03:02;-7084.09;;;12.46;100.00
5350;BME280;2697;42.144;24.794;2023-05-07T03:05:28;-8427.91;;;12.50;100.00
5350;BME280;2697;42.144;24.794;2023-05-07T03:07:53;-9099.63;;;12.51;100.00
5350;BME280;2697;42.144;24.794;2023-05-07T03:10:18;-9434.91;;;12.48;100.00
5350;BME280;2697;42.144;24.794;2023-05-07T03:12:44;-10107.44;;;12.56;100.00
5350;BME280;2697;42.144;24.794;2023-05-07T03:15:09;-11786.91;;;12.64;100.00
5350;BME280;2697;42.144;24.794;2023-05-07T03:17:36;-12794.75;;;12.71;100.00
5350;BME280;2697;42.144;24.794;2023-05-07T03:20:02;-13129.22;;;12.65;100.00
5350;BME280;2697;42.144;24.794;2023-05-07T03:22:27;-14137.41;;;12.74;100.00
5350;BME280;2697;42.144;24.794;2023-05-07T03:24:53;-15144.84;;;12.80;100.00
5350;BME280;2697;42.144;24.794;2023-05-07T03:27:18;-16491.00;;;13.00;100.00
5350;BME280;2697;42.144;24.794;2023-05-07T03:29:43;-18509.63;;;13.25;100.00
5350;BME280;2697;42.144;24.794;2023-05-07T03:32:09;-19186.53;;;13.47;100.00
5350;BME280;2697;42.144;24.794;2023-05-07T03:34:34;-19193.00;;;13.69;100.00
5350;BME280;2697;42.144;24.794;2023-05-07T03:37:00;-18193.16;;;13.94;100.00
5350;BME280;2697;42.144;24.794;2023-05-07T03:39:25;-16186.44;;;14.28;100.00
5350;BME280;2697;42.144;24.794;2023-05-07T03:41:50;-12157.88;;;14.66;100.00
5350;BME280;2697;42.144;24.794;2023-05-07T03:44:16;-6767.94;;;14.70;100.00
5350;BME280;2697;42.144;24.794;2023-05-07T03:46:41;2008.75;;;14.86;100.00
5350;BME280;2697;42.144;24.794;2023-05-07T03:49:07;9116.88;;;15.07;100.00
5350;BME280;2697;42.144;24.794;2023-05-07T03:51:32;16929.00;;;15.52;100.00
5350;BME280;2697;42.144;24.794;2023-05-07T03:53:57;30217.41;;;15.88;100.00
5350;BME280;2697;42.144;24.794;2023-05-07T03:56:23;43555.38;;;16.09;100.00
5350;BME280;2697;42.144;24.794;2023-05-07T03:58:51;69358.78;;;16.50;100.00
5350;BME280;2697;42.144;24.794;2023-05-07T04:01:17;86286.63;;;16.49;100.00
5350;BME280;2697;42.144;24.794;2023-05-07T04:03:42;109608.31;;;16.81;100.00
5350;BME280;2697;42.144;24.794;2023-05-07T04:06:07;135135.72;;;16.88;100.00
5350;BME280;2697;42.144;24.794;2023-05-07T04:08:33;142533.97;;;17.00;100.00
5350;BME280;2697;42.144;24.794;2023-05-07T04:10:58;156958.75;;;16.99;100.00
5350;BME280;2697;42.144;24.794;2023-05-07T04:13:25;143280.09;;;17.18;100.00
5350;BME280;2697;42.144;24.794;2023-05-07T04:15:51;157150.72;;;17.73;100.00
5350;BME280;2697;42.144;24.794;2023-05-07T04:18:17;157187.84;;;17.87;100.00
5350;BME280;2697;42.144;24.794;2023-05-07T04:20:42;157261.97;;;18.16;100.00
5350;BME280;2697;42.144;24.794;2023-05-07T04:23:08;157434.25;;;18.82;100.00
5350;BME280;2697;42.144;24.794;2023-05-07T04:25:33;157527.00;;;19.18;100.00
5350;BME280;2697;42.144;24.794;2023-05-07T04:27:59;157532.28;;;19.20;100.00
5350;BME280;2697;42.144;24.794;2023-05-07T04:30:24;157544.19;;;19.24;100.00
5350;BME280;2697;42.144;24.794;2023-05-07T04:32:50;157625.09;;;19.55;100.00
5350;BME280;2697;42.144;24.794;2023-05-07T04:35:15;157463.38;;;18.93;100.00
5350;BME280;2697;42.144;24.794;2023-05-07T04:37:41;157647.69;;;19.64;100.00
5350;BME280;2697;42.144;24.794;2023-05-07T04:40:07;157728.53;;;19.95;100.00
5350;BME280;2697;42.144;24.794;2023-05-07T04:42:33;157707.31;;;19.87;100.00
5350;BME280;2697;42.144;24.794;2023-05-07T04:44:58;157790.84;;;20.19;100.00
5350;BME280;2697;42.144;24.794;2023-05-07T04:47:23;157585.31;;;19.40;100.00
5350;BME280;2697;42.144;24.794;2023-05-07T04:49:49;157561.44;;;19.31;100.00
5350;BME280;2697;42.144;24.794;2023-05-07T04:52:14;157443.50;;;18.86;100.00
5350;BME280;2697;42.144;24.794;2023-05-07T04:54:40;157564.09;;;19.32;100.00
5350;BME280;2697;42.144;24.794;2023-05-07T04:57:05;157386.47;;;18.64;100.00
5350;BME280;2697;42.144;24.794;2023-05-07T04:59:32;157336.16;;;18.44;100.00
5350;BME280;2697;42.144;24.794;2023-05-07T05:01:57;157346.72;;;18.48;100.00
5350;BME280;2697;42.144;24.794;2023-05-07T05:04:23;157480.63;;;19.00;100.00
5350;BME280;2697;42.144;24.794;2023-05-07T05:06:48;157760.38;;;20.07;100.00
5350;BME280;2697;42.144;24.794;2023-05-07T05:09:13;157691.41;;;19.81;100.00
5350;BME280;2697;42.144;24.794;2023-05-07T05:11:39;157757.72;;;20.06;100.00
5350;BME280;2697;42.144;24.794;2023-05-07T05:14:05;157792.22;;;20.19;99.63
5350;BME280;2697;42.144;24.794;2023-05-07T05:16:30;158116.06;;;21.44;86.99
5350;BME280;2697;42.144;24.794;2023-05-07T05:18:55;157943.50;;;20.77;93.76
5350;BME280;2697;42.144;24.794;2023-05-07T05:21:21;158194.38;;;21.74;85.42
5350;BME280;2697;42.144;24.794;2023-05-07T05:23:46;158274.03;;;22.04;82.29
5350;BME280;2697;42.144;24.794;2023-05-07T05:26:12;158102.75;;;21.39;82.59
5350;BME280;2697;42.144;24.794;2023-05-07T05:28:38;158339.19;;;22.29;76.98
5350;BME280;2697;42.144;24.794;2023-05-07T05:31:04;158474.69;;;22.81;76.27
5350;BME280;2697;42.144;24.794;2023-05-07T05:33:30;158361.75;;;22.38;76.83
5350;BME280;2697;42.144;24.794;2023-05-07T05:35:55;158368.38;;;22.40;77.64
5350;BME280;2697;42.144;24.794;2023-05-07T05:38:20;158484.03;;;22.85;74.01
5350;BME280;2697;42.144;24.794;2023-05-07T05:40:46;158718.03;;;23.74;70.36
5350;BME280;2697;42.144;24.794;2023-05-07T05:43:11;158929.50;;;24.55;66.27
5350;BME280;2697;42.144;24.794;2023-05-07T05:45:37;159191.69;;;25.55;61.68
5350;BME280;2697;42.144;24.794;2023-05-07T05:48:02;158745.94;;;23.85;65.83
5350;BME280;2697;42.144;24.794;2023-05-07T05:50:28;158950.78;;;24.63;63.38
5350;BME280;2697;42.144;24.794;2023-05-07T05:52:53;159190.38;;;25.55;58.48
5350;BME280;2697;42.144;24.794;2023-05-07T05:55:19;159133.16;;;25.33;57.26
5350;BME280;2697;42.144;24.794;2023-05-07T05:57:44;159424.81;;;26.45;52.78
5350;BME280;2697;42.144;24.794;2023-05-07T06:00:10;159179.75;;;25.51;54.89
5350;BME280;2697;42.144;24.794;2023-05-07T06:02:36;158364.41;;;22.39;66.48
5350;BME280;2697;42.144;24.794;2023-05-07T06:05:03;158066.91;;;21.25;75.20
5350;BME280;2697;42.144;24.794;2023-05-07T06:07:28;158178.44;;;21.68;75.66
5350;BME280;2697;42.144;24.794;2023-05-07T06:09:54;158514.59;;;22.96;69.45
5350;BME280;2697;42.144;24.794;2023-05-07T06:12:20;158714.00;;;23.73;64.71
5350;BME280;2697;42.144;24.794;2023-05-07T06:14:46;158827.03;;;24.16;62.15
5350;BME280;2697;42.144;24.794;2023-05-07T06:17:11;158711.34;;;23.72;65.60
5350;BME280;2697;42.144;24.794;2023-05-07T06:19:37;159253.00;;;25.79;57.21
5350;BME280;2697;42.144;24.794;2023-05-07T06:22:02;159320.88;;;26.05;53.41
5350;BME280;2697;42.144;24.794;2023-05-07T06:24:28;159388.78;;;26.31;53.65
5350;BME280;2697;42.144;24.794;2023-05-07T06:26:53;159659.31;;;27.34;50.69
5350;BME280;2697;42.144;24.794;2023-05-07T06:29:19;158924.19;;;24.53;57.63
5350;BME280;2697;42.144;24.794;2023-05-07T06:31:44;159013.34;;;24.87;56.96
5350;BME280;2697;42.144;24.794;2023-05-07T06:34:10;159276.97;;;25.88;53.09
5350;BME280;2697;42.144;24.794;2023-05-07T06:36:39;159093.22;;;25.18;54.54
5350;BME280;2697;42.144;24.794;2023-05-07T06:39:04;159895.31;;;28.24;47.77
5350;BME280;2697;42.144;24.794;2023-05-07T06:41:30;159940.72;;;28.42;46.27
5350;BME280;2697;42.144;24.794;2023-05-07T06:43:55;159163.75;;;25.45;53.50
5350;BME280;2697;42.144;24.794;2023-05-07T06:46:21;159522.06;;;26.82;49.68
5350;BME280;2697;42.144;24.794;2023-05-07T06:48:46;159338.19;;;26.11;50.48
5350;BME280;2697;42.144;24.794;2023-05-07T06:51:11;159700.63;;;27.50;48.58
5350;BME280;2697;42.144;24.794;2023-05-07T06:53:37;159656.66;;;27.33;49.05
5350;BME280;2697;42.144;24.794;2023-05-07T06:56:02;159173.03;;;25.48;51.99
5350;BME280;2697;42.144;24.794;2023-05-07T06:58:27;158619.59;;;23.37;60.90
5350;BME280;2697;42.144;24.794;2023-05-07T07:00:53;158589.00;;;23.25;65.96
5350;BME280;2697;42.144;24.794;2023-05-07T07:03:18;158744.63;;;23.84;62.71
5350;BME280;2697;42.144;24.794;2023-05-07T07:05:43;158892.28;;;24.41;60.82
5350;BME280;2697;42.144;24.794;2023-05-07T07:08:09;159339.50;;;26.12;55.25
5350;BME280;2697;42.144;24.794;2023-05-07T07:10:35;159069.25;;;25.09;57.19
5350;BME280;2697;42.144;24.794;2023-05-07T07:13:00;158912.25;;;24.49;60.20
5350;BME280;2697;42.144;24.794;2023-05-07T07:15:26;158820.41;;;24.13;60.83
5350;BME280;2697;42.144;24.794;2023-05-07T07:17:51;158694.09;;;23.65;61.89
5350;BME280;2697;42.144;24.794;2023-05-07T07:20:17;158167.81;;;21.63;70.82
5350;BME280;2697;42.144;24.794;2023-05-07T07:22:42;158187.75;;;21.71;72.72
5350;BME280;2697;42.144;24.794;2023-05-07T07:25:08;158012.50;;;21.04;77.47
5350;BME280;2697;42.144;24.794;2023-05-07T07:27:33;158377.72;;;22.44;72.44
5350;BME280;2697;42.144;24.794;2023-05-07T07:29:59;158777.84;;;23.97;61.98
5350;BME280;2697;42.144;24.794;2023-05-07T07:32:24;158302.03;;;22.15;72.28
5350;BME280;2697;42.144;24.794;2023-05-07T07:34:50;158727.31;;;23.78;65.61
5350;BME280;2697;42.144;24.794;2023-05-07T07:37:16;159089.22;;;25.16;60.72
5350;BME280;2697;42.144;24.794;2023-05-07T07:39:41;159322.19;;;26.05;55.49
5350;BME280;2697;42.144;24.794;2023-05-07T07:42:06;158918.88;;;24.51;59.92
5350;BME280;2697;42.144;24.794;2023-05-07T07:44:32;159046.56;;;25.00;58.27
5350;BME280;2697;42.144;24.794;2023-05-07T07:46:57;159073.22;;;25.10;59.32
5350;BME280;2697;42.144;24.794;2023-05-07T07:49:23;158940.16;;;24.59;62.07
5350;BME280;2697;42.144;24.794;2023-05-07T07:51:48;158306.00;;;22.16;70.51
5350;BME280;2697;42.144;24.794;2023-05-07T07:54:13;158254.16;;;21.97;73.89
5350;BME280;2697;42.144;24.794;2023-05-07T07:56:39;158061.59;;;21.23;76.87
5350;BME280;2697;42.144;24.794;2023-05-07T07:59:04;158191.72;;;21.73;75.05
5350;BME280;2697;42.144;24.794;2023-05-07T08:01:30;158258.13;;;21.98;74.35
5350;BME280;2697;42.144;24.794;2023-05-07T08:03:56;158220.94;;;21.84;76.05
5350;BME280;2697;42.144;24.794;2023-05-07T08:06:23;158190.41;;;21.72;75.68
5350;BME280;2697;42.144;24.794;2023-05-07T08:08:49;158177.09;;;21.67;73.18
5350;BME280;2697;42.144;24.794;2023-05-07T08:11:14;158012.50;;;21.04;76.05
5350;BME280;2697;42.144;24.794;2023-05-07T08:13:39;157995.22;;;20.97;81.05
5350;BME280;2697;42.144;24.794;2023-05-07T08:16:05;158145.25;;;21.55;74.63
5350;BME280;2697;42.144;24.794;2023-05-07T08:18:31;158139.97;;;21.53;71.68
5350;BME280;2697;42.144;24.794;2023-05-07T08:20:56;158084.22;;;21.31;77.39
5350;BME280;2697;42.144;24.794;2023-05-07T08:23:22;158182.44;;;21.69;73.68
5350;BME280;2697;42.144;24.794;2023-05-07T08:25:48;158041.69;;;21.15;71.12
5350;BME280;2697;42.144;24.794;2023-05-07T08:28:14;158171.81;;;21.65;71.79
5350;BME280;2697;42.144;24.794;2023-05-07T08:30:40;158256.81;;;21.98;70.81
5350;BME280;2697;42.144;24.794;2023-05-07T08:33:05;158054.94;;;21.20;76.17
5350;BME280;2697;42.144;24.794;2023-05-07T08:35:30;158146.59;;;21.55;75.96
5350;BME280;2697;42.144;24.794;2023-05-07T08:37:56;158195.69;;;21.74;75.77
5350;BME280;2697;42.144;24.794;2023-05-07T08:40:25;158252.78;;;21.96;78.67
5350;BME280;2697;42.144;24.794;2023-05-07T08:42:52;158325.88;;;22.24;73.50
5350;BME280;2697;42.144;24.794;2023-05-07T08:45:19;158106.75;;;21.40;75.10
5350;BME280;2697;42.144;24.794;2023-05-07T08:47:49;158324.56;;;22.24;71.93
5350;BME280;2697;42.144;24.794;2023-05-07T08:50:17;158254.16;;;21.97;73.08
5350;BME280;2697;42.144;24.794;2023-05-07T08:52:42;158402.97;;;22.54;69.82
5350;BME280;2697;42.144;24.794;2023-05-07T08:55:08;158408.25;;;22.56;69.78
5350;BME280;2697;42.144;24.794;2023-05-07T08:57:34;158267.41;;;22.02;70.07
5350;BME280;2697;42.144;24.794;2023-05-07T09:00:00;158335.19;;;22.28;69.98
5350;BME280;2697;42.144;24.794;2023-05-07T09:02:26;158458.75;;;22.75;66.23
5350;BME280;2697;42.144;24.794;2023-05-07T09:04:51;158558.44;;;23.13;62.03
5350;BME280;2697;42.144;24.794;2023-05-07T09:07:19;158570.44;;;23.18;53.16
5350;BME280;2697;42.144;24.794;2023-05-07T09:09:45;158485.34;;;22.85;55.17
5350;BME280;2697;42.144;24.794;2023-05-07T09:12:10;158425.53;;;22.62;58.41
5350;BME280;2697;42.144;24.794;2023-05-07T09:14:35;158450.78;;;22.72;57.24
5350;BME280;2697;42.144;24.794;2023-05-07T09:17:01;158527.91;;;23.01;55.27
5350;BME280;2697;42.144;24.794;2023-05-07T09:19:27;158591.66;;;23.26;52.92
5350;BME280;2697;42.144;24.794;2023-05-07T09:22:03;158597.00;;;23.28;54.76
5350;BME280;2697;42.144;24.794;2023-05-07T09:24:28;158626.25;;;23.39;53.91
5350;BME280;2697;42.144;24.794;2023-05-07T09:26:59;158527.91;;;23.01;55.30
5350;BME280;2697;42.144;24.794;2023-05-07T09:29:25;158493.31;;;22.88;55.50
5350;BME280;2697;42.144;24.794;2023-05-07T09:31:51;158412.25;;;22.57;55.54
5350;BME280;2697;42.144;24.794;2023-05-07T09:34:16;158462.72;;;22.76;56.99
5350;BME280;2697;42.144;24.794;2023-05-07T09:36:42;158442.78;;;22.69;56.41
5350;BME280;2697;42.144;24.794;2023-05-07T09:39:07;158543.81;;;23.08;53.91
5350;BME280;2697;42.144;24.794;2023-05-07T09:41:33;158571.75;;;23.18;54.68
5350;BME280;2697;42.144;24.794;2023-05-07T09:44:07;158413.56;;;22.58;54.61
5350;BME280;2697;42.144;24.794;2023-05-07T09:46:34;158341.81;;;22.30;56.26
5350;BME280;2697;42.144;24.794;2023-05-07T09:49:01;158452.13;;;22.72;55.67
5350;BME280;2697;42.144;24.794;2023-05-07T09:51:34;158367.06;;;22.40;55.63
5350;BME280;2697;42.144;24.794;2023-05-07T09:54:04;158379.03;;;22.44;57.35
5350;BME280;2697;42.144;24.794;2023-05-07T09:56:31;158478.69;;;22.83;58.33
5350;BME280;2697;42.144;24.794;2023-05-07T09:58:59;158549.16;;;23.10;54.57
5350;BME280;2697;42.144;24.794;2023-05-07T10:01:25;158434.81;;;22.66;56.05
5350;BME280;2697;42.144;24.794;2023-05-07T10:03:52;158485.34;;;22.85;55.73
5350;BME280;2697;42.144;24.794;2023-05-07T10:06:20;158567.72;;;23.17;55.55
5350;BME280;2697;42.144;24.794;2023-05-07T10:08:46;158674.09;;;23.57;55.31
5350;BME280;2697;42.144;24.794;2023-05-07T10:11:13;158777.84;;;23.97;52.67
5350;BME280;2697;42.144;24.794;2023-05-07T10:13:40;158828.38;;;24.16;51.29
5350;BME280;2697;42.144;24.794;2023-05-07T10:16:06;158703.38;;;23.69;53.41
5350;BME280;2697;42.144;24.794;2023-05-07T10:18:33;158602.31;;;23.30;54.21
5350;BME280;2697;42.144;24.794;2023-05-07T10:21:06;158495.97;;;22.89;51.71
5350;BME280;2697;42.144;24.794;2023-05-07T10:23:33;158533.19;;;23.03;51.94
5350;BME280;2697;42.144;24.794;2023-05-07T10:26:02;158574.41;;;23.19;51.98
5350;BME280;2697;42.144;24.794;2023-05-07T10:28:34;158450.78;;;22.72;52.22
5350;BME280;2697;42.144;24.794;2023-05-07T10:31:23;158579.72;;;23.21;52.00
5350;BME280;2697;42.144;24.794;2023-05-07T10:33:52;158634.19;;;23.42;51.39
5350;BME280;2697;42.144;24.794;2023-05-07T10:36:18;158711.34;;;23.72;48.55
5350;BME280;2697;42.144;24.794;2023-05-07T10:38:44;158671.44;;;23.56;49.72
5350;BME280;2697;42.144;24.794;2023-05-07T10:41:11;158546.50;;;23.09;50.16
5350;BME280;2697;42.144;24.794;2023-05-07T10:43:44;158611.59;;;23.33;49.41
5350;BME280;2697;42.144;24.794;2023-05-07T10:46:21;158586.34;;;23.24;50.99
5350;BME280;2697;42.144;24.794;2023-05-07T10:51:29;158683.44;;;23.61;49.58
5350;BME280;2697;42.144;24.794;2023-05-07T10:56:40;158541.16;;;23.07;49.93
5350;BME280;2697;42.144;24.794;2023-05-07T11:02:01;158703.38;;;23.69;50.64
5350;BME280;2697;42.144;24.794;2023-05-07T11:04:28;158767.22;;;23.93;49.14
5350;BME280;2697;42.144;24.794;2023-05-07T11:17:32;158894.94;;;24.42;46.96
5350;BME280;2697;42.144;24.794;2023-05-07T11:19:59;158793.81;;;24.03;45.52
5350;BME280;2697;42.144;24.794;2023-05-07T11:25:01;158745.94;;;23.85;45.88
5350;BME280;2697;42.144;24.794;2023-05-07T11:27:27;158743.28;;;23.84;47.87
5350;BME280;2697;42.144;24.794;2023-05-07T11:29:52;158654.16;;;23.50;47.79
5350;BME280;2697;42.144;24.794;2023-05-07T11:32:25;158591.66;;;23.26;47.67
5350;BME280;2697;42.144;24.794;2023-05-07T11:34:52;158748.59;;;23.86;47.18
5350;BME280;2697;42.144;24.794;2023-05-07T11:37:19;158743.28;;;23.84;47.97
5350;BME280;2697;42.144;24.794;2023-05-07T11:39:44;158868.34;;;24.32;47.29
5350;BME280;2697;42.144;24.794;2023-05-07T11:42:30;158862.97;;;24.30;47.72
5350;BME280;2697;42.144;24.794;2023-05-07T11:44:57;158876.28;;;24.35;46.56
5350;BME280;2697;42.144;24.794;2023-05-07T11:47:22;158914.91;;;24.50;45.82
5350;BME280;2697;42.144;24.794;2023-05-07T11:49:52;158819.06;;;24.13;46.02
5350;BME280;2697;42.144;24.794;2023-05-07T11:52:20;158884.25;;;24.38;46.62
5350;BME280;2697;42.144;24.794;2023-05-07T11:54:52;158952.09;;;24.64;45.44
5350;BME280;2697;42.144;24.794;2023-05-07T11:57:19;158892.28;;;24.41;46.23
5350;BME280;2697;42.144;24.794;2023-05-07T11:59:45;158888.28;;;24.39;47.11
5350;BME280;2697;42.144;24.794;2023-05-07T12:02:14;158853.63;;;24.26;46.10
5350;BME280;2697;42.144;24.794;2023-05-07T12:04:39;158800.44;;;24.06;46.43
5350;BME280;2697;42.144;24.794;2023-05-07T12:07:05;158893.59;;;24.41;46.20
5350;BME280;2697;42.144;24.794;2023-05-07T12:09:32;158924.19;;;24.53;45.66
5350;BME280;2697;42.144;24.794;2023-05-07T12:12:03;159025.28;;;24.92;43.94
5350;BME280;2697;42.144;24.794;2023-05-07T12:14:28;158978.72;;;24.74;45.10
5350;BME280;2697;42.144;24.794;2023-05-07T12:16:54;159023.94;;;24.91;45.58
5350;BME280;2697;42.144;24.794;2023-05-07T12:19:20;159165.06;;;25.45;44.25
5350;BME280;2697;42.144;24.794;2023-05-07T12:21:46;159123.81;;;25.29;43.75
5350;BME280;2697;42.144;24.794;2023-05-07T12:24:11;159093.22;;;25.18;44.80
5350;BME280;2697;42.144;24.794;2023-05-07T12:26:38;159094.53;;;25.18;44.07
5350;BME280;2697;42.144;24.794;2023-05-07T12:29:04;158968.09;;;24.70;45.00
5350;BME280;2697;42.144;24.794;2023-05-07T12:31:30;159042.59;;;24.98;45.00
5350;BME280;2697;42.144;24.794;2023-05-07T12:33:55;158974.72;;;24.72;45.57
5350;BME280;2697;42.144;24.794;2023-05-07T12:36:20;158857.63;;;24.28;45.56
5350;BME280;2697;42.144;24.794;2023-05-07T12:38:49;158934.84;;;24.57;45.08
5350;BME280;2697;42.144;24.794;2023-05-07T12:41:15;158803.09;;;24.07;45.66
5350;BME280;2697;42.144;24.794;2023-05-07T12:43:44;158868.34;;;24.32;46.09
5350;BME280;2697;42.144;24.794;2023-05-07T12:46:09;158966.75;;;24.69;45.08
5350;BME280;2697;42.144;24.794;2023-05-07T12:48:38;159065.28;;;25.07;43.41
5350;BME280;2697;42.144;24.794;2023-05-07T12:51:08;159067.94;;;25.08;44.20
5350;BME280;2697;42.144;24.794;2023-05-07T12:53:39;159025.28;;;24.92;45.46
5350;BME280;2697;42.144;24.794;2023-05-07T12:56:06;159055.97;;;25.04;45.60
5350;BME280;2697;42.144;24.794;2023-05-07T12:58:34;159017.31;;;24.89;45.42
5350;BME280;2697;42.144;24.794;2023-05-07T13:01:04;159094.53;;;25.18;45.25
5350;BME280;2697;42.144;24.794;2023-05-07T13:03:32;159137.13;;;25.35;44.26
5350;BME280;2697;42.144;24.794;2023-05-07T13:05:59;159178.41;;;25.50;43.26
5350;BME280;2697;42.144;24.794;2023-05-07T13:08:33;159070.59;;;25.09;44.10
5350;BME280;2697;42.144;24.794;2023-05-07T13:11:00;159075.88;;;25.11;42.85
5350;BME280;2697;42.144;24.794;2023-05-07T13:13:32;159129.16;;;25.32;42.61
5350;BME280;2697;42.144;24.794;2023-05-07T13:15:57;159201.00;;;25.59;42.19